createdAt,value
2023-05-04T00:00:45.233Z,78.47
2023-05-04T00:01:45.176Z,78.47
2023-05-04T00:02:45.320Z,78.78
2023-05-04T00:03:45.410Z,79.09
2023-05-04T00:04:45.263Z,79.09
2023-05-04T00:05:45.452Z,78.89
2023-05-04T00:06:45.176Z,78.89
2023-05-04T00:07:45.128Z,78.92
2023-05-04T00:08:45.117Z,78.99
2023-05-04T00:09:45.086Z,78.92
2023-05-04T00:10:45.090Z,79.13
2023-05-04T00:11:45.070Z,79.23
2023-05-04T00:12:45.436Z,79.13
2023-05-04T00:13:45.057Z,79.13
2023-05-04T00:14:45.044Z,79.33
2023-05-04T00:15:45.053Z,79.23
2023-05-04T00:16:45.121Z,79.23
2023-05-04T00:17:45.025Z,79.33
2023-05-04T00:18:45.040Z,79.23
2023-05-04T00:19:45.265Z,79.33
2023-05-04T00:20:44.994Z,79.33
2023-05-04T00:21:44.965Z,79.54
2023-05-04T00:22:44.962Z,79.64
2023-05-04T00:23:44.956Z,79.44
2023-05-04T00:24:44.968Z,79.64
2023-05-04T00:25:44.913Z,79.64
2023-05-04T00:26:45.195Z,79.54
2023-05-04T00:27:44.904Z,79.44
2023-05-04T00:28:44.908Z,79.54
2023-05-04T00:29:44.883Z,79.44
2023-05-04T00:30:44.925Z,79.64
2023-05-04T00:31:44.891Z,79.75
2023-05-04T00:32:44.870Z,79.85
2023-05-04T00:33:45.133Z,79.75
2023-05-04T00:34:44.867Z,79.85
2023-05-04T00:35:44.815Z,79.75
2023-05-04T00:36:44.856Z,79.85
2023-05-04T00:37:44.793Z,79.75
2023-05-04T00:38:44.816Z,79.75
2023-05-04T00:39:44.783Z,79.75
2023-05-04T00:40:45.049Z,79.75
2023-05-04T00:41:44.772Z,79.75
2023-05-04T00:42:44.813Z,79.64
2023-05-04T00:43:44.733Z,79.64
2023-05-04T00:44:44.728Z,79.75
2023-05-04T00:45:44.709Z,79.85
2023-05-04T00:46:44.738Z,79.88
2023-05-04T00:47:45.021Z,79.99
2023-05-04T00:48:44.749Z,80.19
2023-05-04T00:49:44.675Z,80.19
2023-05-04T00:50:44.677Z,80.19
2023-05-04T00:51:44.650Z,80.40
2023-05-04T00:52:44.646Z,80.30
2023-05-04T00:53:44.630Z,80.61
2023-05-04T00:54:44.935Z,80.71
2023-05-04T00:55:44.625Z,80.71
2023-05-04T00:56:44.622Z,80.81
2023-05-04T00:57:44.578Z,81.02
2023-05-04T00:58:44.575Z,81.02
2023-05-04T00:59:44.562Z,81.02
2023-05-04T01:00:44.645Z,81.12
2023-05-04T01:01:44.829Z,81.23
2023-05-04T01:02:44.617Z,81.33
2023-05-04T01:03:44.580Z,81.33
2023-05-04T01:04:44.530Z,81.37
2023-05-04T01:05:44.516Z,81.57
2023-05-04T01:06:44.544Z,81.57
2023-05-04T01:07:44.514Z,81.67
2023-05-04T01:08:44.803Z,81.67
2023-05-04T01:09:44.464Z,81.77
2023-05-04T01:10:44.472Z,81.77
2023-05-04T01:11:44.437Z,81.77
2023-05-04T01:12:44.596Z,81.77
2023-05-04T01:13:44.410Z,81.88
2023-05-04T01:14:44.413Z,81.77
2023-05-04T01:15:44.670Z,81.67
2023-05-04T01:16:44.419Z,81.98
2023-05-04T01:17:44.425Z,82.29
2023-05-04T01:18:44.406Z,82.09
2023-05-04T01:19:44.366Z,82.19
2023-05-04T01:20:45.208Z,82.19
2023-05-04T01:21:44.348Z,82.29
2023-05-04T01:22:44.630Z,82.19
2023-05-04T01:23:44.342Z,82.40
2023-05-04T01:24:44.339Z,82.29
2023-05-04T01:25:44.311Z,82.19
2023-05-04T01:26:44.292Z,82.29
2023-05-04T01:27:44.265Z,82.54
2023-05-04T01:28:44.259Z,82.54
2023-05-04T01:29:44.530Z,82.84
2023-05-04T01:30:44.308Z,82.95
2023-05-04T01:31:44.228Z,82.95
2023-05-04T01:32:44.244Z,82.84
2023-05-04T01:33:44.208Z,82.84
2023-05-04T01:34:44.189Z,82.84
2023-05-04T01:35:44.201Z,82.84
2023-05-04T01:36:44.516Z,83.05
2023-05-04T01:37:44.155Z,83.15
2023-05-04T01:38:44.157Z,83.05
2023-05-04T01:39:44.144Z,83.15
2023-05-04T01:40:44.129Z,83.26
2023-05-04T01:41:44.111Z,83.15
2023-05-04T01:42:44.155Z,83.36
2023-05-04T01:43:44.367Z,83.26
2023-05-04T01:44:44.085Z,83.26
2023-05-04T01:45:44.083Z,83.47
2023-05-04T01:46:44.103Z,83.87
2023-05-04T01:47:44.137Z,83.71
2023-05-04T01:48:44.089Z,83.71
2023-05-04T01:49:44.065Z,83.71
2023-05-04T01:50:44.352Z,83.71
2023-05-04T01:51:44.008Z,83.81
2023-05-04T01:52:44.055Z,83.81
2023-05-04T01:53:43.996Z,83.91
2023-05-04T01:54:44.025Z,84.12
2023-05-04T01:55:43.962Z,84.12
2023-05-04T01:56:43.964Z,84.22
2023-05-04T01:57:44.238Z,84.36
2023-05-04T01:58:43.947Z,84.47
2023-05-04T01:59:43.951Z,84.67
2023-05-04T02:00:43.952Z,84.88
2023-05-04T02:01:43.960Z,84.78
2023-05-04T02:02:44.019Z,84.78
2023-05-04T02:03:43.991Z,84.88
2023-05-04T02:04:44.167Z,85.19
2023-05-04T02:05:43.885Z,85.39
2023-05-04T02:06:43.900Z,85.60
2023-05-04T02:07:43.829Z,85.71
2023-05-04T02:08:50.739Z,85.81
2023-05-04T02:09:43.827Z,85.81
2023-05-04T02:10:43.823Z,85.91
2023-05-04T02:11:44.124Z,86.16
2023-05-04T02:12:43.877Z,86.16
2023-05-04T02:13:43.778Z,86.16
2023-05-04T02:14:43.790Z,86.26
2023-05-04T02:15:43.813Z,86.57
2023-05-04T02:16:43.748Z,86.57
2023-05-04T02:17:43.787Z,86.68
2023-05-04T02:18:44.081Z,86.78
2023-05-04T02:19:43.722Z,86.78
2023-05-04T02:20:43.701Z,86.78
2023-05-04T02:21:43.689Z,86.88
2023-05-04T02:22:43.701Z,86.98
2023-05-04T02:23:43.669Z,86.98
2023-05-04T02:24:43.707Z,87.08
2023-05-04T02:25:43.941Z,87.08
2023-05-04T02:26:43.653Z,87.08
2023-05-04T02:27:43.652Z,87.29
2023-05-04T02:28:43.657Z,87.40
2023-05-04T02:29:43.631Z,87.29
2023-05-04T02:30:43.653Z,87.19
2023-05-04T02:31:43.646Z,87.29
2023-05-04T02:32:43.880Z,87.08
2023-05-04T02:33:43.570Z,87.19
2023-05-04T02:34:43.557Z,87.19
2023-05-04T02:35:43.548Z,87.08
2023-05-04T02:36:43.585Z,86.88
2023-05-04T02:37:43.531Z,86.98
2023-05-04T02:38:43.537Z,86.98
2023-05-04T02:39:43.526Z,86.98
2023-05-04T02:40:43.501Z,86.88
2023-05-04T02:41:43.488Z,86.88
2023-05-04T02:42:43.536Z,86.98
2023-05-04T02:43:43.481Z,86.88
2023-05-04T02:44:43.764Z,86.98
2023-05-04T02:45:43.497Z,86.88
2023-05-04T02:46:43.443Z,86.98
2023-05-04T02:47:43.454Z,86.88
2023-05-04T02:48:43.478Z,86.88
2023-05-04T02:49:43.417Z,86.88
2023-05-04T02:50:43.673Z,86.98
2023-05-04T02:51:43.388Z,86.88
2023-05-04T02:52:43.373Z,86.78
2023-05-04T02:53:43.373Z,86.78
2023-05-04T02:54:43.405Z,86.88
2023-05-04T02:55:43.348Z,86.78
2023-05-04T02:56:43.352Z,86.68
2023-05-04T02:57:43.606Z,86.78
2023-05-04T02:58:43.321Z,86.98
2023-05-04T02:59:43.303Z,86.98
2023-05-04T03:00:43.354Z,87.08
2023-05-04T03:01:43.344Z,87.08
2023-05-04T03:02:43.389Z,87.08
2023-05-04T03:03:43.269Z,87.08
2023-05-04T03:04:43.581Z,87.29
2023-05-04T03:05:43.291Z,87.19
2023-05-04T03:06:43.292Z,87.29
2023-05-04T03:07:43.258Z,87.29
2023-05-04T03:08:43.210Z,87.08
2023-05-04T03:09:44.776Z,87.08
2023-05-04T03:10:43.187Z,87.08
2023-05-04T03:11:43.454Z,87.08
2023-05-04T03:12:43.249Z,87.08
2023-05-04T03:13:43.156Z,86.98
2023-05-04T03:14:43.136Z,87.19
2023-05-04T03:15:43.132Z,87.19
2023-05-04T03:16:43.155Z,87.19
2023-05-04T03:17:43.146Z,87.19
2023-05-04T03:18:43.424Z,87.29
2023-05-04T03:19:43.086Z,87.40
2023-05-04T03:20:43.097Z,87.19
2023-05-04T03:21:43.083Z,87.19
2023-05-04T03:22:43.080Z,87.19
2023-05-04T03:23:43.065Z,87.19
2023-05-04T03:24:43.075Z,87.08
2023-05-04T03:25:43.308Z,86.98
2023-05-04T03:26:43.021Z,86.98
2023-05-04T03:27:43.011Z,86.98
2023-05-04T03:28:42.996Z,86.88
2023-05-04T03:29:42.991Z,86.98
2023-05-04T03:30:43.005Z,86.98
2023-05-04T03:31:43.042Z,87.08
2023-05-04T03:32:43.257Z,87.13
2023-05-04T03:33:42.939Z,87.23
2023-05-04T03:34:42.942Z,87.34
2023-05-04T03:35:42.954Z,87.44
2023-05-04T03:36:42.938Z,87.54
2023-05-04T03:37:42.918Z,87.65
2023-05-04T03:38:42.880Z,87.74
2023-05-04T03:39:52.291Z,87.85
2023-05-04T03:40:42.861Z,87.95
2023-05-04T03:41:42.880Z,87.95
2023-05-04T03:42:42.902Z,87.85
2023-05-04T03:43:42.846Z,87.95
2023-05-04T03:44:42.822Z,87.95
2023-05-04T03:45:42.844Z,87.95
2023-05-04T03:46:43.101Z,87.95
2023-05-04T03:47:42.918Z,87.95
2023-05-04T03:48:42.818Z,87.95
2023-05-04T03:49:42.772Z,87.95
2023-05-04T03:50:42.790Z,87.95
2023-05-04T03:51:42.767Z,87.74
2023-05-04T03:52:42.745Z,87.74
2023-05-04T03:53:44.657Z,87.74
2023-05-04T03:54:42.748Z,87.85
2023-05-04T03:55:42.715Z,87.74
2023-05-04T03:56:42.726Z,87.74
2023-05-04T03:57:42.706Z,87.65
2023-05-04T03:58:42.673Z,87.65
2023-05-04T03:59:42.678Z,87.65
2023-05-04T04:00:42.705Z,87.74
2023-05-04T04:01:42.664Z,87.85
2023-05-04T04:02:42.720Z,87.85
2023-05-04T04:03:42.686Z,87.95
2023-05-04T04:04:42.656Z,88.06
2023-05-04T04:05:42.956Z,88.16
2023-05-04T04:06:43.522Z,88.06
2023-05-04T04:07:42.593Z,88.06
2023-05-04T04:08:42.576Z,88.26
2023-05-04T04:09:42.565Z,88.26
2023-05-04T04:10:42.572Z,88.16
2023-05-04T04:11:42.540Z,88.16
2023-05-04T04:12:42.933Z,88.06
2023-05-04T04:13:42.524Z,88.16
2023-05-04T04:14:42.519Z,88.47
2023-05-04T04:15:42.846Z,88.47
2023-05-04T04:16:42.618Z,88.57
2023-05-04T04:17:42.520Z,88.47
2023-05-04T04:18:42.504Z,88.47
2023-05-04T04:19:42.471Z,88.47
2023-05-04T04:20:42.482Z,88.47
2023-05-04T04:21:42.448Z,88.47
2023-05-04T04:22:42.428Z,88.57
2023-05-04T04:23:42.428Z,88.57
2023-05-04T04:24:42.444Z,88.47
2023-05-04T04:25:44.576Z,88.47
2023-05-04T04:26:42.369Z,88.47
2023-05-04T04:27:42.377Z,88.47
2023-05-04T04:28:42.368Z,88.26
2023-05-04T04:29:42.393Z,88.26
2023-05-04T04:30:42.377Z,88.26
2023-05-04T04:31:42.362Z,88.16
2023-05-04T04:32:42.625Z,88.06
2023-05-04T04:33:42.318Z,87.81
2023-05-04T04:34:42.295Z,87.81
2023-05-04T04:35:42.294Z,87.71
2023-05-04T04:36:42.310Z,87.71
2023-05-04T04:37:42.271Z,87.60
2023-05-04T04:38:42.262Z,87.71
2023-05-04T04:39:42.347Z,87.60
2023-05-04T04:40:42.242Z,87.50
2023-05-04T04:41:42.229Z,87.40
2023-05-04T04:42:42.252Z,87.50
2023-05-04T04:43:42.205Z,87.60
2023-05-04T04:44:42.505Z,87.60
2023-05-04T04:45:42.188Z,87.60
2023-05-04T04:46:42.177Z,87.50
2023-05-04T04:47:42.222Z,87.60
2023-05-04T04:48:42.204Z,87.60
2023-05-04T04:49:42.169Z,87.81
2023-05-04T04:50:42.153Z,87.92
2023-05-04T04:51:42.149Z,87.98
2023-05-04T04:52:42.135Z,87.98
2023-05-04T04:53:42.115Z,87.98
2023-05-04T04:54:42.132Z,87.98
2023-05-04T04:55:42.098Z,88.18
2023-05-04T04:56:42.082Z,88.29
2023-05-04T04:57:42.078Z,88.29
2023-05-04T04:58:42.039Z,88.39
2023-05-04T04:59:42.064Z,88.39
2023-05-04T05:00:42.095Z,88.18
2023-05-04T05:01:42.041Z,87.98
2023-05-04T05:02:42.050Z,87.77
2023-05-04T05:03:42.012Z,87.77
2023-05-04T05:04:42.043Z,87.87
2023-05-04T05:05:41.990Z,87.98
2023-05-04T05:06:42.002Z,87.98
2023-05-04T05:07:41.972Z,88.18
2023-05-04T05:08:41.969Z,88.18
2023-05-04T05:09:42.305Z,88.08
2023-05-04T05:10:43.822Z,87.98
2023-05-04T05:11:41.937Z,87.66
2023-05-04T05:12:42.033Z,87.77
2023-05-04T05:13:41.896Z,88.76
2023-05-04T05:14:41.900Z,89.28
2023-05-04T05:15:41.888Z,89.28
2023-05-04T05:16:41.935Z,88.76
2023-05-04T05:17:41.904Z,88.10
2023-05-04T05:18:41.904Z,86.15
2023-05-04T05:19:42.341Z,85.73
2023-05-04T05:20:42.133Z,85.42
2023-05-04T05:21:41.825Z,85.42
2023-05-04T05:22:41.819Z,85.42
2023-05-04T05:23:41.797Z,85.22
2023-05-04T05:24:41.817Z,85.11
2023-05-04T05:25:41.786Z,85.11
2023-05-04T05:26:41.790Z,85.11
2023-05-04T05:27:41.736Z,84.91
2023-05-04T05:28:41.757Z,84.49
2023-05-04T05:29:41.735Z,84.39
2023-05-04T05:30:47.402Z,84.29
2023-05-04T05:31:41.735Z,83.87
2023-05-04T05:32:41.999Z,83.98
2023-05-04T05:33:41.690Z,84.19
2023-05-04T05:34:41.689Z,84.19
2023-05-04T05:35:41.702Z,84.25
2023-05-04T05:36:41.721Z,84.14
2023-05-04T05:37:41.660Z,83.84
2023-05-04T05:38:41.669Z,83.63
2023-05-04T05:39:41.655Z,83.63
2023-05-04T05:40:41.598Z,83.63
2023-05-04T05:41:41.617Z,83.53
2023-05-04T05:42:41.616Z,83.18
2023-05-04T05:43:41.614Z,83.18
2023-05-04T05:44:41.579Z,83.18
2023-05-04T05:45:41.575Z,83.07
2023-05-04T05:46:41.564Z,82.56
2023-05-04T05:47:42.315Z,82.42
2023-05-04T05:48:41.600Z,82.21
2023-05-04T05:49:42.595Z,82.01
2023-05-04T05:50:41.560Z,81.70
2023-05-04T05:51:41.542Z,81.81
2023-05-04T05:52:41.516Z,81.67
2023-05-04T05:53:41.468Z,81.35
2023-05-04T05:54:41.534Z,80.84
2023-05-04T05:55:41.467Z,81.62
2023-05-04T05:56:41.516Z,81.21
2023-05-04T05:57:41.792Z,80.35
2023-05-04T05:58:41.512Z,79.94
2023-05-04T05:59:41.494Z,78.78
2023-05-04T06:00:41.559Z,77.33
2023-05-04T06:01:41.425Z,74.46
2023-05-04T06:02:41.495Z,71.19
2023-05-04T06:03:41.578Z,68.53
2023-05-04T06:04:41.459Z,65.89
2023-05-04T06:05:41.387Z,63.86
2023-05-04T06:06:42.634Z,61.33
2023-05-04T06:07:41.371Z,59.41
2023-05-04T06:08:41.347Z,58.27
2023-05-04T06:09:41.323Z,57.10
2023-05-04T06:10:41.593Z,56.46
2023-05-04T06:11:41.309Z,56.46
2023-05-04T06:12:41.420Z,55.93
2023-05-04T06:13:41.286Z,53.98
2023-05-04T06:14:41.275Z,54.31
2023-05-04T06:15:41.270Z,54.84
2023-05-04T06:16:41.351Z,55.10
2023-05-04T06:17:41.271Z,55.50
2023-05-04T06:18:41.326Z,55.86
2023-05-04T06:19:41.226Z,57.49
2023-05-04T06:20:41.253Z,58.81
2023-05-04T06:21:41.248Z,59.14
2023-05-04T06:22:41.495Z,58.71
2023-05-04T06:23:41.273Z,59.05
2023-05-04T06:24:41.264Z,59.25
2023-05-04T06:25:41.161Z,59.55
2023-05-04T06:26:41.144Z,59.05
2023-05-04T06:27:41.170Z,59.35
2023-05-04T06:28:41.401Z,59.25
2023-05-04T06:29:41.162Z,59.53
2023-05-04T06:30:41.152Z,58.69
2023-05-04T06:31:41.127Z,58.38
2023-05-04T06:32:41.127Z,58.65
2023-05-04T06:33:41.077Z,58.76
2023-05-04T06:34:41.094Z,57.95
2023-05-04T06:35:41.077Z,58.04
2023-05-04T06:36:41.133Z,57.34
2023-05-04T06:37:41.797Z,57.10
2023-05-04T06:38:41.046Z,57.31
2023-05-04T06:39:41.026Z,57.31
2023-05-04T06:40:41.084Z,57.21
2023-05-04T06:41:41.267Z,56.98
2023-05-04T06:42:41.019Z,56.34
2023-05-04T06:43:40.982Z,56.31
2023-05-04T06:44:41.005Z,55.58
2023-05-04T06:45:41.054Z,55.07
2023-05-04T06:46:40.941Z,55.07
2023-05-04T06:47:40.940Z,55.68
2023-05-04T06:48:41.255Z,56.46
2023-05-04T06:49:40.943Z,54.71
2023-05-04T06:50:40.905Z,55.32
2023-05-04T06:51:40.904Z,54.94
2023-05-04T06:52:40.911Z,55.07
2023-05-04T06:53:40.904Z,56.11
2023-05-04T06:54:40.902Z,56.87
2023-05-04T06:55:41.151Z,57.59
2023-05-04T06:56:40.914Z,57.71
2023-05-04T06:57:40.826Z,58.86
2023-05-04T06:58:40.839Z,58.96
2023-05-04T06:59:40.827Z,58.96
2023-05-04T07:00:40.819Z,59.16
2023-05-04T07:01:40.910Z,59.39
2023-05-04T07:02:40.810Z,59.91
2023-05-04T07:03:40.792Z,60.69
2023-05-04T07:04:40.815Z,60.15
2023-05-04T07:05:40.791Z,58.94
2023-05-04T07:06:40.786Z,59.14
2023-05-04T07:07:40.756Z,58.70
2023-05-04T07:08:40.723Z,58.22
2023-05-04T07:09:40.705Z,59.62
2023-05-04T07:10:40.706Z,59.06
2023-05-04T07:11:40.691Z,60.56
2023-05-04T07:12:40.748Z,59.27
2023-05-04T07:13:40.724Z,60.18
2023-05-04T07:14:40.940Z,59.98
2023-05-04T07:15:40.668Z,60.08
2023-05-04T07:16:40.744Z,60.49
2023-05-04T07:17:40.845Z,60.36
2023-05-04T07:18:40.701Z,59.44
2023-05-04T07:19:40.621Z,59.82
2023-05-04T07:20:40.691Z,59.52
2023-05-04T07:21:40.600Z,59.62
2023-05-04T07:22:40.574Z,59.62
2023-05-04T07:23:40.564Z,59.82
2023-05-04T07:24:40.681Z,59.18
2023-05-04T07:25:40.618Z,59.48
2023-05-04T07:26:40.818Z,58.67
2023-05-04T07:27:40.524Z,58.45
2023-05-04T07:28:40.531Z,58.14
2023-05-04T07:29:40.602Z,57.50
2023-05-04T07:30:40.615Z,57.50
2023-05-04T07:31:40.551Z,57.50
2023-05-04T07:32:40.559Z,57.12
2023-05-04T07:33:40.479Z,57.84
2023-05-04T07:34:45.615Z,58.04
2023-05-04T07:35:40.518Z,58.92
2023-05-04T07:36:43.179Z,57.40
2023-05-04T07:37:40.465Z,57.40
2023-05-04T07:38:40.698Z,56.59
2023-05-04T07:39:41.349Z,57.20
2023-05-04T07:40:40.423Z,56.59
2023-05-04T07:41:40.389Z,56.92
2023-05-04T07:42:40.406Z,57.33
2023-05-04T07:43:40.363Z,57.84
2023-05-04T07:44:40.355Z,57.33
2023-05-04T07:45:40.680Z,57.35
2023-05-04T07:46:40.376Z,57.53
2023-05-04T07:47:40.359Z,57.73
2023-05-04T07:48:40.343Z,58.67
2023-05-04T07:49:40.333Z,58.85
2023-05-04T07:50:40.320Z,58.34
2023-05-04T07:51:40.324Z,58.42
2023-05-04T07:52:40.320Z,58.18
2023-05-04T07:53:40.294Z,57.75
2023-05-04T07:54:40.291Z,56.54
2023-05-04T07:55:40.259Z,55.63
2023-05-04T07:56:40.210Z,56.26
2023-05-04T07:57:40.277Z,56.36
2023-05-04T07:58:40.631Z,58.82
2023-05-04T07:59:40.210Z,59.00
2023-05-04T08:00:40.301Z,58.87
2023-05-04T08:01:42.527Z,58.74
2023-05-04T08:02:40.263Z,55.50
2023-05-04T08:03:40.164Z,55.40
2023-05-04T08:04:40.157Z,54.56
2023-05-04T08:05:40.453Z,54.26
2023-05-04T08:06:40.240Z,54.16
2023-05-04T08:07:40.131Z,54.16
2023-05-04T08:08:40.151Z,54.74
2023-05-04T08:09:40.114Z,53.93
2023-05-04T08:10:40.078Z,54.11
2023-05-04T08:11:40.140Z,53.70
2023-05-04T08:12:40.176Z,53.98
2023-05-04T08:13:40.050Z,53.78
2023-05-04T08:14:40.043Z,52.34
2023-05-04T08:15:40.053Z,53.05
2023-05-04T08:16:40.020Z,54.76
2023-05-04T08:17:40.004Z,53.25
2023-05-04T08:18:40.094Z,54.66
2023-05-04T08:19:39.986Z,54.05
2023-05-04T08:20:40.010Z,53.72
2023-05-04T08:21:39.940Z,53.63
2023-05-04T08:22:39.981Z,54.71
2023-05-04T08:23:39.956Z,53.32
2023-05-04T08:24:40.323Z,53.50
2023-05-04T08:25:39.976Z,52.89
2023-05-04T08:26:39.909Z,52.49
2023-05-04T08:27:39.946Z,52.39
2023-05-04T08:28:39.924Z,52.92
2023-05-04T08:29:39.947Z,52.21
2023-05-04T08:30:39.965Z,52.11
2023-05-04T08:31:39.911Z,52.31
2023-05-04T08:32:39.883Z,52.92
2023-05-04T08:33:39.824Z,51.89
2023-05-04T08:34:39.805Z,51.76
2023-05-04T08:35:39.850Z,51.68
2023-05-04T08:36:40.127Z,53.20
2023-05-04T08:37:39.844Z,52.69
2023-05-04T08:38:39.812Z,51.96
2023-05-04T08:39:41.923Z,50.55
2023-05-04T08:40:39.871Z,51.73
2023-05-04T08:41:39.780Z,51.20
2023-05-04T08:42:39.797Z,50.60
2023-05-04T08:43:39.768Z,49.59
2023-05-04T08:44:40.749Z,49.39
2023-05-04T08:45:39.807Z,50.40
2023-05-04T08:46:39.736Z,50.40
2023-05-04T08:47:39.721Z,50.88
2023-05-04T08:48:40.021Z,49.79
2023-05-04T08:49:39.657Z,50.70
2023-05-04T08:50:39.689Z,50.80
2023-05-04T08:51:39.632Z,50.40
2023-05-04T08:52:39.663Z,49.37
2023-05-04T08:53:39.643Z,49.39
2023-05-04T08:54:39.697Z,49.92
2023-05-04T08:55:39.914Z,49.99
2023-05-04T08:56:39.700Z,50.70
2023-05-04T08:57:39.656Z,49.77
2023-05-04T08:58:39.564Z,49.35
2023-05-04T08:59:39.604Z,49.65
2023-05-04T09:00:39.679Z,50.43
2023-05-04T09:01:39.575Z,50.13
2023-05-04T09:02:39.962Z,47.91
2023-05-04T09:03:39.582Z,48.79
2023-05-04T09:04:39.490Z,48.09
2023-05-04T09:05:39.545Z,48.52
2023-05-04T09:06:39.585Z,48.86
2023-05-04T09:07:39.468Z,49.85
2023-05-04T09:08:39.499Z,49.73
2023-05-04T09:09:39.453Z,50.73
2023-05-04T09:10:39.540Z,49.60
2023-05-04T09:11:39.446Z,47.69
2023-05-04T09:12:39.477Z,48.37
2023-05-04T09:13:39.436Z,46.96
2023-05-04T09:14:39.406Z,47.54
2023-05-04T09:15:39.487Z,47.02
2023-05-04T09:16:39.435Z,48.22
2023-05-04T09:17:50.956Z,46.59
2023-05-04T09:18:39.448Z,46.77
2023-05-04T09:19:39.356Z,45.87
2023-05-04T09:20:39.341Z,45.75
2023-05-04T09:21:39.694Z,45.34
2023-05-04T09:22:39.450Z,44.95
2023-05-04T09:23:39.403Z,46.15
2023-05-04T09:24:39.352Z,46.55
2023-05-04T09:25:39.318Z,45.77
2023-05-04T09:26:39.326Z,45.47
2023-05-04T09:27:39.267Z,45.77
2023-05-04T09:28:39.553Z,45.77
2023-05-04T09:29:39.230Z,45.18
2023-05-04T09:30:39.422Z,45.79
2023-05-04T09:31:39.384Z,46.57
2023-05-04T09:32:39.223Z,47.67
2023-05-04T09:33:39.575Z,45.84
2023-05-04T09:34:39.180Z,45.37
2023-05-04T09:35:39.196Z,46.09
2023-05-04T09:36:39.298Z,46.19
2023-05-04T09:37:39.168Z,47.60
2023-05-04T09:38:39.153Z,46.67
2023-05-04T09:39:39.464Z,47.47
2023-05-04T09:40:39.186Z,47.25
2023-05-04T09:41:39.172Z,46.42
2023-05-04T09:42:39.179Z,46.04
2023-05-04T09:43:39.103Z,46.33
2023-05-04T09:44:39.098Z,45.20
2023-05-04T09:45:39.098Z,43.12
2023-05-04T09:46:39.151Z,44.32
2023-05-04T09:47:39.173Z,43.82
2023-05-04T09:48:39.150Z,43.42
2023-05-04T09:49:39.112Z,43.74
2023-05-04T09:50:39.125Z,44.22
2023-05-04T09:51:39.112Z,43.50
2023-05-04T09:52:40.382Z,44.30
2023-05-04T09:53:39.070Z,43.08
2023-05-04T09:54:39.108Z,42.76
2023-05-04T09:55:38.994Z,42.05
2023-05-04T09:56:39.019Z,41.96
2023-05-04T09:57:39.050Z,40.97
2023-05-04T09:58:39.050Z,41.67
2023-05-04T09:59:39.268Z,42.47
2023-05-04T10:00:39.099Z,42.72
2023-05-04T10:01:38.994Z,43.22
2023-05-04T10:02:39.149Z,43.04
2023-05-04T10:03:39.071Z,42.63
2023-05-04T10:04:39.015Z,42.82
2023-05-04T10:05:38.971Z,42.21
2023-05-04T10:06:38.999Z,42.25
2023-05-04T10:07:41.387Z,43.16
2023-05-04T10:08:38.983Z,43.74
2023-05-04T10:09:38.936Z,43.04
2023-05-04T10:10:38.885Z,42.24
2023-05-04T10:11:38.901Z,42.46
2023-05-04T10:12:39.199Z,42.96
2023-05-04T10:13:38.859Z,43.24
2023-05-04T10:14:38.925Z,41.33
2023-05-04T10:15:38.875Z,41.23
2023-05-04T10:16:38.903Z,42.03
2023-05-04T10:17:38.811Z,42.33
2023-05-04T10:18:38.894Z,43.04
2023-05-04T10:19:39.051Z,42.82
2023-05-04T10:20:38.866Z,43.90
2023-05-04T10:21:39.781Z,43.77
2023-05-04T10:22:38.744Z,41.85
2023-05-04T10:23:38.844Z,42.52
2023-05-04T10:24:38.841Z,41.21
2023-05-04T10:25:38.758Z,39.50
2023-05-04T10:26:38.707Z,39.29
2023-05-04T10:27:38.748Z,40.00
2023-05-04T10:28:38.704Z,39.22
2023-05-04T10:29:38.657Z,39.79
2023-05-04T10:30:38.695Z,37.79
2023-05-04T10:31:38.709Z,37.77
2023-05-04T10:32:39.006Z,36.68
2023-05-04T10:33:38.666Z,37.40
2023-05-04T10:34:38.729Z,38.45
2023-05-04T10:35:38.617Z,39.45
2023-05-04T10:36:39.052Z,39.65
2023-05-04T10:37:38.594Z,40.71
2023-05-04T10:38:38.558Z,38.71
2023-05-04T10:39:38.552Z,39.09
2023-05-04T10:40:38.629Z,38.40
2023-05-04T10:41:38.558Z,39.31
2023-05-04T10:42:38.537Z,40.17
2023-05-04T10:43:38.580Z,40.87
2023-05-04T10:44:38.536Z,42.76
2023-05-04T10:45:38.580Z,41.35
2023-05-04T10:46:38.476Z,38.53
2023-05-04T10:47:38.484Z,39.61
2023-05-04T10:48:38.580Z,38.70
2023-05-04T10:49:38.489Z,39.51
2023-05-04T10:50:38.431Z,39.11
2023-05-04T10:51:48.760Z,39.91
2023-05-04T10:52:38.387Z,40.69
2023-05-04T10:53:38.416Z,38.81
2023-05-04T10:54:38.447Z,39.41
2023-05-04T10:55:38.458Z,39.11
2023-05-04T10:56:38.669Z,39.81
2023-05-04T10:57:38.332Z,40.01
2023-05-04T10:58:38.336Z,40.00
2023-05-04T10:59:38.395Z,39.50
2023-05-04T11:00:38.453Z,39.50
2023-05-04T11:01:38.407Z,39.29
2023-05-04T11:02:38.430Z,40.59
2023-05-04T11:03:38.699Z,39.18
2023-05-04T11:04:38.371Z,39.58
2023-05-04T11:05:38.250Z,39.26
2023-05-04T11:06:38.372Z,40.06
2023-05-04T11:07:38.327Z,37.46
2023-05-04T11:08:38.269Z,37.46
2023-05-04T11:09:38.309Z,37.04
2023-05-04T11:10:38.534Z,35.53
2023-05-04T11:11:38.263Z,35.61
2023-05-04T11:12:38.394Z,35.79
2023-05-04T11:13:38.190Z,33.81
2023-05-04T11:14:38.259Z,34.39
2023-05-04T11:15:38.158Z,34.68
2023-05-04T11:16:38.217Z,33.48
2023-05-04T11:17:38.247Z,34.20
2023-05-04T11:18:38.283Z,35.10
2023-05-04T11:19:38.205Z,34.99
2023-05-04T11:20:38.125Z,35.19
2023-05-04T11:21:38.108Z,35.56
2023-05-04T11:22:38.066Z,37.66
2023-05-04T11:23:38.914Z,37.06
2023-05-04T11:24:38.145Z,37.99
2023-05-04T11:25:38.053Z,37.13
2023-05-04T11:26:38.085Z,38.51
2023-05-04T11:27:38.144Z,37.49
2023-05-04T11:28:38.043Z,37.76
2023-05-04T11:29:38.372Z,36.76
2023-05-04T11:30:38.059Z,36.76
2023-05-04T11:31:38.073Z,36.06
2023-05-04T11:32:38.135Z,36.46
2023-05-04T11:33:38.012Z,37.04
2023-05-04T11:34:38.021Z,37.90
2023-05-04T11:35:37.966Z,36.69
2023-05-04T11:36:38.368Z,35.75
2023-05-04T11:37:37.964Z,35.05
2023-05-04T11:38:37.949Z,33.75
2023-05-04T11:39:38.045Z,34.33
2023-05-04T11:40:37.921Z,33.14
2023-05-04T11:41:37.899Z,33.52
2023-05-04T11:42:38.808Z,34.40
2023-05-04T11:43:37.970Z,33.40
2023-05-04T11:44:37.849Z,33.22
2023-05-04T11:45:37.888Z,34.01
2023-05-04T11:46:37.881Z,32.64
2023-05-04T11:47:37.877Z,31.76
2023-05-04T11:48:37.881Z,31.74
2023-05-04T11:49:38.136Z,32.82
2023-05-04T11:50:37.933Z,31.83
2023-05-04T11:51:37.834Z,32.03
2023-05-04T11:52:37.787Z,31.51
2023-05-04T11:53:37.881Z,32.60
2023-05-04T11:54:37.866Z,31.23
2023-05-04T11:55:37.871Z,31.71
2023-05-04T11:56:37.815Z,31.81
2023-05-04T11:57:37.801Z,31.60
2023-05-04T11:58:37.755Z,30.70
2023-05-04T11:59:37.773Z,30.93
2023-05-04T12:00:37.759Z,32.03
2023-05-04T12:01:37.990Z,32.01
2023-05-04T12:02:37.741Z,31.43
2023-05-04T12:03:52.159Z,32.45
2023-05-04T12:04:37.727Z,33.26
2023-05-04T12:05:37.817Z,33.45
2023-05-04T12:06:37.785Z,34.13
2023-05-04T12:07:38.013Z,33.62
2023-05-04T12:08:37.790Z,32.51
2023-05-04T12:09:37.803Z,31.00
2023-05-04T12:10:37.832Z,31.63
2023-05-04T12:11:37.626Z,31.74
2023-05-04T12:12:37.680Z,31.84
2023-05-04T12:13:37.573Z,32.77
2023-05-04T12:14:37.829Z,32.98
2023-05-04T12:15:37.622Z,32.89
2023-05-04T12:16:37.577Z,33.47
2023-05-04T12:17:37.651Z,32.44
2023-05-04T12:18:37.607Z,32.92
2023-05-04T12:19:37.565Z,32.23
2023-05-04T12:20:37.572Z,32.41
2023-05-04T12:21:37.522Z,32.51
2023-05-04T12:22:37.496Z,32.01
2023-05-04T12:23:37.478Z,31.40
2023-05-04T12:24:37.512Z,32.39
2023-05-04T12:25:47.334Z,31.20
2023-05-04T12:26:37.507Z,31.10
2023-05-04T12:27:37.736Z,31.32
2023-05-04T12:28:37.546Z,31.33
2023-05-04T12:29:37.441Z,32.01
2023-05-04T12:30:37.485Z,30.91
2023-05-04T12:31:37.547Z,30.83
2023-05-04T12:32:37.435Z,30.54
2023-05-04T12:33:37.421Z,31.05
2023-05-04T12:34:37.660Z,31.24
2023-05-04T12:35:37.385Z,30.83
2023-05-04T12:36:37.470Z,30.35
2023-05-04T12:37:37.373Z,30.56
2023-05-04T12:38:37.458Z,31.66
2023-05-04T12:39:37.425Z,32.34
2023-05-04T12:40:37.304Z,31.84
2023-05-04T12:41:37.314Z,33.11
2023-05-04T12:42:37.436Z,31.02
2023-05-04T12:43:37.317Z,31.33
2023-05-04T12:44:37.279Z,31.23
2023-05-04T12:45:37.278Z,30.43
2023-05-04T12:46:37.633Z,30.62
2023-05-04T12:47:37.513Z,30.21
2023-05-04T12:48:37.377Z,29.43
2023-05-04T12:49:37.268Z,29.03
2023-05-04T12:50:37.274Z,29.51
2023-05-04T12:51:37.213Z,29.93
2023-05-04T12:52:37.213Z,31.03